الصفحة الرئيسية
METAR-TAF:

METAR-TAF

مطار :

بينانج, ماليزيا

دائرة عرض: 05-18N, خط طول: 100-16E, ارتفاع: 3 متر

مراقبة الطقس الحالي

تاريخ ووقت الإصدار 29 دقيقة قبل الساعة 04:30UTC
ريح 9 عقدة من الجنوب, الاتجاه يتراوح بين الجنوب الشرقي و الجنوب الغربي
درجة الحرارة 33°درجة مئوية
الرطوبة 63%
ضغط 1007 hPa
الرؤية: 9000 متر
غيوم قليلة على ارتفاع 2000 قدم

METAR: WMKP 190430Z 18009KT 130V230 9000 FEW020 33/25 Q1007 NOSIG

زمن: 12:59 (04:59 UTC)

توقعات

تاريخ ووقت الإصدار 5ساعات و 59 دقيقة قبل الساعة 23:00UTC
التوقعات صالحة من19 الساعة 00 UTC إلى 20 الساعة 00 UTC
ريح 3 عقدةمن اتجاهات متغيرة
الرؤية: 8000 متر
غيوم قليلة على ارتفاع 2500 قدم
أصبح
من 19 الساعة 04 UTC إلى 19 الساعة 06 UTC
ريح 8 عقدة من الجنوب الغربي
الرؤية: 9000 متر
غيوم قليلة على ارتفاع 2000 قدم
مؤقت
من 19 الساعة 07 UTC إلى 19 الساعة 09 UTC
الرؤية: 6000 متر
غيوم قليلة على ارتفاع 1700 قدم, مزنة ركامية.
عاصفة رعدية, مطر,

TAF: WMKP 182300Z 1900/2000 VRB03KT 8000 FEW025 BECMG 1904/1906 22008KT 9000 FEW020 TEMPO 1907/1909 6000 TSRA FEW017CB

أرصاد الطقس والتوقعات من أكثر من 4000 مطار (تقارير الطقس للمطار METAR والتنبؤ بالطقس بالمطارTAF).

المحطات المتاحة هي النقط الصفراء والحمراء على الخريطة.

حرك المؤشر فوق النقطة لمعرفة اسم المحطة.

ثم انقر لمعرفة أرصاد وتوقعات الطقس.

لتغيير الخارطة: اضغط على الأزرار الخضراء مع رمز الصليب الأسود للتكبير. على الزر الأخضر مع شرطة للتصغير، أو على الأسهم الخضراء للخرائط المجاورة.


METAR-TAF: